sensor_id;sensor_type;location;lat;lon;timestamp;P1;durP1;ratioP1;P2;durP2;ratioP2
15240;SDS011;7723;52.170;9.978;2023-07-08T00:00:16;3.88;;;3.53;;
15240;SDS011;7723;52.170;9.978;2023-07-08T00:02:45;5.38;;;3.30;;
15240;SDS011;7723;52.170;9.978;2023-07-08T00:05:12;5.45;;;3.65;;
15240;SDS011;7723;52.170;9.978;2023-07-08T00:07:42;6.72;;;3.33;;
15240;SDS011;7723;52.170;9.978;2023-07-08T00:10:15;5.10;;;3.40;;
15240;SDS011;7723;52.170;9.978;2023-07-08T00:12:43;4.60;;;3.35;;
15240;SDS011;7723;52.170;9.978;2023-07-08T00:15:11;4.82;;;4.00;;
15240;SDS011;7723;52.170;9.978;2023-07-08T00:17:39;4.75;;;3.70;;
15240;SDS011;7723;52.170;9.978;2023-07-08T00:20:11;4.38;;;3.55;;
15240;SDS011;7723;52.170;9.978;2023-07-08T00:22:40;5.47;;;4.07;;
15240;SDS011;7723;52.170;9.978;2023-07-08T00:25:12;4.32;;;3.40;;
15240;SDS011;7723;52.170;9.978;2023-07-08T00:27:39;7.22;;;4.22;;
15240;SDS011;7723;52.170;9.978;2023-07-08T00:30:12;8.13;;;3.20;;
15240;SDS011;7723;52.170;9.978;2023-07-08T00:32:47;6.28;;;3.88;;
15240;SDS011;7723;52.170;9.978;2023-07-08T00:35:19;5.55;;;4.05;;
15240;SDS011;7723;52.170;9.978;2023-07-08T00:37:49;7.07;;;4.32;;
15240;SDS011;7723;52.170;9.978;2023-07-08T00:40:18;5.85;;;3.97;;
15240;SDS011;7723;52.170;9.978;2023-07-08T00:42:46;4.88;;;3.80;;
15240;SDS011;7723;52.170;9.978;2023-07-08T00:45:20;6.88;;;3.60;;
15240;SDS011;7723;52.170;9.978;2023-07-08T00:47:59;4.22;;;3.50;;
15240;SDS011;7723;52.170;9.978;2023-07-08T00:50:31;4.57;;;3.60;;
15240;SDS011;7723;52.170;9.978;2023-07-08T00:55:53;3.78;;;3.10;;
15240;SDS011;7723;52.170;9.978;2023-07-08T00:58:24;6.45;;;3.55;;
15240;SDS011;7723;52.170;9.978;2023-07-08T01:00:53;4.50;;;3.60;;
15240;SDS011;7723;52.170;9.978;2023-07-08T01:03:23;5.15;;;3.53;;
15240;SDS011;7723;52.170;9.978;2023-07-08T01:05:53;7.53;;;3.55;;
15240;SDS011;7723;52.170;9.978;2023-07-08T01:08:26;6.93;;;3.72;;
15240;SDS011;7723;52.170;9.978;2023-07-08T01:10:57;4.22;;;3.33;;
15240;SDS011;7723;52.170;9.978;2023-07-08T01:13:27;5.57;;;3.22;;
15240;SDS011;7723;52.170;9.978;2023-07-08T01:15:58;4.72;;;3.65;;
15240;SDS011;7723;52.170;9.978;2023-07-08T01:18:25;3.40;;;2.80;;
15240;SDS011;7723;52.170;9.978;2023-07-08T01:20:53;4.03;;;3.50;;
15240;SDS011;7723;52.170;9.978;2023-07-08T01:23:22;4.47;;;3.50;;
15240;SDS011;7723;52.170;9.978;2023-07-08T01:25:50;4.47;;;3.33;;
15240;SDS011;7723;52.170;9.978;2023-07-08T01:28:18;5.40;;;3.45;;
15240;SDS011;7723;52.170;9.978;2023-07-08T01:30:46;5.90;;;3.15;;
15240;SDS011;7723;52.170;9.978;2023-07-08T01:33:16;4.32;;;3.38;;
15240;SDS011;7723;52.170;9.978;2023-07-08T01:35:47;6.00;;;3.08;;
15240;SDS011;7723;52.170;9.978;2023-07-08T01:38:15;5.55;;;3.17;;
15240;SDS011;7723;52.170;9.978;2023-07-08T01:40:52;4.68;;;3.33;;
15240;SDS011;7723;52.170;9.978;2023-07-08T01:43:20;3.90;;;3.17;;
15240;SDS011;7723;52.170;9.978;2023-07-08T01:45:47;4.40;;;3.38;;
15240;SDS011;7723;52.170;9.978;2023-07-08T01:48:18;4.20;;;3.80;;
15240;SDS011;7723;52.170;9.978;2023-07-08T01:50:50;6.55;;;3.92;;
15240;SDS011;7723;52.170;9.978;2023-07-08T01:53:22;5.75;;;4.30;;
15240;SDS011;7723;52.170;9.978;2023-07-08T01:55:55;5.93;;;3.20;;
15240;SDS011;7723;52.170;9.978;2023-07-08T01:58:23;5.75;;;3.25;;
15240;SDS011;7723;52.170;9.978;2023-07-08T02:00:50;4.45;;;2.90;;
15240;SDS011;7723;52.170;9.978;2023-07-08T02:03:18;6.72;;;4.00;;
15240;SDS011;7723;52.170;9.978;2023-07-08T02:05:45;5.72;;;3.53;;
15240;SDS011;7723;52.170;9.978;2023-07-08T02:08:13;4.00;;;3.45;;
15240;SDS011;7723;52.170;9.978;2023-07-08T02:10:40;5.70;;;3.03;;
15240;SDS011;7723;52.170;9.978;2023-07-08T02:13:10;3.95;;;3.33;;
15240;SDS011;7723;52.170;9.978;2023-07-08T02:15:37;4.50;;;3.22;;
15240;SDS011;7723;52.170;9.978;2023-07-08T02:18:04;4.90;;;3.50;;
15240;SDS011;7723;52.170;9.978;2023-07-08T02:20:31;5.97;;;3.70;;
15240;SDS011;7723;52.170;9.978;2023-07-08T02:22:58;3.85;;;3.33;;
15240;SDS011;7723;52.170;9.978;2023-07-08T02:25:25;6.07;;;3.75;;
15240;SDS011;7723;52.170;9.978;2023-07-08T02:27:53;4.95;;;3.65;;
15240;SDS011;7723;52.170;9.978;2023-07-08T02:30:23;5.45;;;3.13;;
15240;SDS011;7723;52.170;9.978;2023-07-08T02:32:50;7.47;;;3.78;;
15240;SDS011;7723;52.170;9.978;2023-07-08T02:35:22;4.22;;;3.25;;
15240;SDS011;7723;52.170;9.978;2023-07-08T02:37:51;6.68;;;3.45;;
15240;SDS011;7723;52.170;9.978;2023-07-08T02:40:18;3.75;;;3.05;;
15240;SDS011;7723;52.170;9.978;2023-07-08T02:42:45;5.20;;;3.50;;
15240;SDS011;7723;52.170;9.978;2023-07-08T02:45:12;4.15;;;3.70;;
15240;SDS011;7723;52.170;9.978;2023-07-08T02:47:41;3.97;;;3.15;;
15240;SDS011;7723;52.170;9.978;2023-07-08T02:50:09;6.03;;;3.47;;
15240;SDS011;7723;52.170;9.978;2023-07-08T02:52:37;8.45;;;3.85;;
15240;SDS011;7723;52.170;9.978;2023-07-08T02:55:05;5.55;;;3.53;;
15240;SDS011;7723;52.170;9.978;2023-07-08T02:57:32;3.75;;;3.05;;
15240;SDS011;7723;52.170;9.978;2023-07-08T03:00:00;5.43;;;3.65;;
15240;SDS011;7723;52.170;9.978;2023-07-08T03:02:28;4.55;;;3.28;;
15240;SDS011;7723;52.170;9.978;2023-07-08T03:04:59;5.82;;;3.35;;
15240;SDS011;7723;52.170;9.978;2023-07-08T03:07:27;4.68;;;3.33;;
15240;SDS011;7723;52.170;9.978;2023-07-08T03:09:54;5.90;;;2.88;;
15240;SDS011;7723;52.170;9.978;2023-07-08T03:12:21;4.90;;;3.65;;
15240;SDS011;7723;52.170;9.978;2023-07-08T03:14:48;6.05;;;4.07;;
15240;SDS011;7723;52.170;9.978;2023-07-08T03:17:15;5.72;;;3.30;;
15240;SDS011;7723;52.170;9.978;2023-07-08T03:19:44;6.53;;;3.70;;
15240;SDS011;7723;52.170;9.978;2023-07-08T03:22:12;6.53;;;3.78;;
15240;SDS011;7723;52.170;9.978;2023-07-08T03:24:39;4.72;;;3.55;;
15240;SDS011;7723;52.170;9.978;2023-07-08T03:27:11;5.10;;;3.40;;
15240;SDS011;7723;52.170;9.978;2023-07-08T03:29:38;4.68;;;3.17;;
15240;SDS011;7723;52.170;9.978;2023-07-08T03:32:06;6.22;;;3.63;;
15240;SDS011;7723;52.170;9.978;2023-07-08T03:34:35;4.75;;;3.47;;
15240;SDS011;7723;52.170;9.978;2023-07-08T03:37:02;3.88;;;3.47;;
15240;SDS011;7723;52.170;9.978;2023-07-08T03:39:31;3.97;;;3.25;;
15240;SDS011;7723;52.170;9.978;2023-07-08T03:41:58;6.82;;;4.15;;
15240;SDS011;7723;52.170;9.978;2023-07-08T03:44:25;6.20;;;3.67;;
15240;SDS011;7723;52.170;9.978;2023-07-08T03:46:52;4.78;;;3.40;;
15240;SDS011;7723;52.170;9.978;2023-07-08T03:49:20;6.45;;;3.75;;
15240;SDS011;7723;52.170;9.978;2023-07-08T03:51:49;4.65;;;3.47;;
15240;SDS011;7723;52.170;9.978;2023-07-08T03:54:19;6.13;;;3.70;;
15240;SDS011;7723;52.170;9.978;2023-07-08T03:56:49;5.03;;;3.47;;
15240;SDS011;7723;52.170;9.978;2023-07-08T03:59:16;4.63;;;3.35;;
15240;SDS011;7723;52.170;9.978;2023-07-08T04:01:44;6.63;;;3.70;;
15240;SDS011;7723;52.170;9.978;2023-07-08T04:04:13;6.80;;;3.72;;
15240;SDS011;7723;52.170;9.978;2023-07-08T04:06:41;6.05;;;3.42;;
15240;SDS011;7723;52.170;9.978;2023-07-08T04:09:08;4.30;;;3.30;;
15240;SDS011;7723;52.170;9.978;2023-07-08T04:11:35;4.55;;;3.10;;
15240;SDS011;7723;52.170;9.978;2023-07-08T04:14:04;4.15;;;3.00;;
15240;SDS011;7723;52.170;9.978;2023-07-08T04:16:35;6.20;;;3.47;;
15240;SDS011;7723;52.170;9.978;2023-07-08T04:19:10;5.85;;;3.47;;
15240;SDS011;7723;52.170;9.978;2023-07-08T04:21:39;9.40;;;3.47;;
15240;SDS011;7723;52.170;9.978;2023-07-08T04:24:08;4.05;;;2.97;;
15240;SDS011;7723;52.170;9.978;2023-07-08T04:26:36;5.85;;;3.67;;
15240;SDS011;7723;52.170;9.978;2023-07-08T04:29:06;4.60;;;3.28;;
15240;SDS011;7723;52.170;9.978;2023-07-08T04:31:37;12.85;;;3.50;;
15240;SDS011;7723;52.170;9.978;2023-07-08T04:34:04;5.43;;;3.55;;
15240;SDS011;7723;52.170;9.978;2023-07-08T04:36:31;4.65;;;3.53;;
15240;SDS011;7723;52.170;9.978;2023-07-08T04:38:59;5.70;;;3.28;;
15240;SDS011;7723;52.170;9.978;2023-07-08T04:41:27;6.85;;;3.75;;
15240;SDS011;7723;52.170;9.978;2023-07-08T04:43:54;5.75;;;3.55;;
15240;SDS011;7723;52.170;9.978;2023-07-08T04:46:27;5.88;;;3.45;;
15240;SDS011;7723;52.170;9.978;2023-07-08T04:49:02;4.68;;;3.67;;
15240;SDS011;7723;52.170;9.978;2023-07-08T04:51:30;4.68;;;3.75;;
15240;SDS011;7723;52.170;9.978;2023-07-08T04:53:57;3.70;;;3.22;;
15240;SDS011;7723;52.170;9.978;2023-07-08T04:56:25;6.00;;;3.20;;
15240;SDS011;7723;52.170;9.978;2023-07-08T04:59:01;5.82;;;4.18;;
15240;SDS011;7723;52.170;9.978;2023-07-08T05:01:29;5.50;;;3.75;;
15240;SDS011;7723;52.170;9.978;2023-07-08T05:03:56;5.15;;;3.92;;
15240;SDS011;7723;52.170;9.978;2023-07-08T05:06:24;4.20;;;3.80;;
15240;SDS011;7723;52.170;9.978;2023-07-08T05:08:51;5.97;;;3.55;;
15240;SDS011;7723;52.170;9.978;2023-07-08T05:11:19;7.50;;;3.70;;
15240;SDS011;7723;52.170;9.978;2023-07-08T05:13:46;6.13;;;3.90;;
15240;SDS011;7723;52.170;9.978;2023-07-08T05:16:13;5.30;;;3.90;;
15240;SDS011;7723;52.170;9.978;2023-07-08T05:18:42;8.68;;;4.10;;
15240;SDS011;7723;52.170;9.978;2023-07-08T05:21:09;6.20;;;3.72;;
15240;SDS011;7723;52.170;9.978;2023-07-08T05:23:37;8.25;;;4.15;;
15240;SDS011;7723;52.170;9.978;2023-07-08T05:26:05;5.43;;;3.58;;
15240;SDS011;7723;52.170;9.978;2023-07-08T05:28:33;4.40;;;3.53;;
15240;SDS011;7723;52.170;9.978;2023-07-08T05:31:00;4.13;;;3.35;;
15240;SDS011;7723;52.170;9.978;2023-07-08T05:33:28;5.35;;;3.88;;
15240;SDS011;7723;52.170;9.978;2023-07-08T05:35:58;7.45;;;3.95;;
15240;SDS011;7723;52.170;9.978;2023-07-08T05:38:25;6.28;;;4.05;;
15240;SDS011;7723;52.170;9.978;2023-07-08T05:40:54;5.88;;;4.30;;
15240;SDS011;7723;52.170;9.978;2023-07-08T05:43:22;5.15;;;4.20;;
15240;SDS011;7723;52.170;9.978;2023-07-08T05:45:49;5.68;;;4.07;;
15240;SDS011;7723;52.170;9.978;2023-07-08T05:48:16;5.78;;;3.53;;
15240;SDS011;7723;52.170;9.978;2023-07-08T05:50:44;4.68;;;3.72;;
15240;SDS011;7723;52.170;9.978;2023-07-08T05:53:14;4.07;;;3.55;;
15240;SDS011;7723;52.170;9.978;2023-07-08T05:55:44;4.88;;;4.38;;
15240;SDS011;7723;52.170;9.978;2023-07-08T05:58:11;4.18;;;3.47;;
15240;SDS011;7723;52.170;9.978;2023-07-08T06:00:40;4.95;;;3.53;;
15240;SDS011;7723;52.170;9.978;2023-07-08T06:03:07;6.25;;;3.80;;
15240;SDS011;7723;52.170;9.978;2023-07-08T06:05:34;4.65;;;3.45;;
15240;SDS011;7723;52.170;9.978;2023-07-08T06:08:02;6.60;;;3.58;;
15240;SDS011;7723;52.170;9.978;2023-07-08T06:10:31;4.47;;;3.60;;
15240;SDS011;7723;52.170;9.978;2023-07-08T06:12:58;7.35;;;3.78;;
15240;SDS011;7723;52.170;9.978;2023-07-08T06:15:25;5.05;;;3.60;;
15240;SDS011;7723;52.170;9.978;2023-07-08T06:17:52;6.93;;;3.67;;
15240;SDS011;7723;52.170;9.978;2023-07-08T06:20:19;4.15;;;3.47;;
15240;SDS011;7723;52.170;9.978;2023-07-08T06:22:46;5.35;;;3.60;;
15240;SDS011;7723;52.170;9.978;2023-07-08T06:25:13;3.53;;;3.20;;
15240;SDS011;7723;52.170;9.978;2023-07-08T06:27:42;5.07;;;3.53;;
15240;SDS011;7723;52.170;9.978;2023-07-08T06:30:09;3.97;;;3.60;;
15240;SDS011;7723;52.170;9.978;2023-07-08T06:32:36;4.38;;;3.42;;
15240;SDS011;7723;52.170;9.978;2023-07-08T06:35:04;5.25;;;3.20;;
15240;SDS011;7723;52.170;9.978;2023-07-08T06:37:31;5.15;;;3.53;;
15240;SDS011;7723;52.170;9.978;2023-07-08T06:39:59;7.15;;;3.47;;
15240;SDS011;7723;52.170;9.978;2023-07-08T06:42:26;3.47;;;3.17;;
15240;SDS011;7723;52.170;9.978;2023-07-08T06:44:56;4.60;;;3.22;;
15240;SDS011;7723;52.170;9.978;2023-07-08T06:47:24;5.72;;;3.28;;
15240;SDS011;7723;52.170;9.978;2023-07-08T06:49:51;8.23;;;3.80;;
15240;SDS011;7723;52.170;9.978;2023-07-08T06:52:18;3.92;;;3.33;;
15240;SDS011;7723;52.170;9.978;2023-07-08T06:54:45;4.88;;;3.08;;
15240;SDS011;7723;52.170;9.978;2023-07-08T06:57:12;3.90;;;3.10;;
15240;SDS011;7723;52.170;9.978;2023-07-08T06:59:39;4.40;;;3.30;;
15240;SDS011;7723;52.170;9.978;2023-07-08T07:02:08;5.07;;;3.38;;
15240;SDS011;7723;52.170;9.978;2023-07-08T07:04:35;4.45;;;3.60;;
15240;SDS011;7723;52.170;9.978;2023-07-08T07:07:03;8.23;;;4.07;;
15240;SDS011;7723;52.170;9.978;2023-07-08T07:09:30;6.75;;;3.45;;
15240;SDS011;7723;52.170;9.978;2023-07-08T07:11:57;3.65;;;3.35;;
15240;SDS011;7723;52.170;9.978;2023-07-08T07:14:24;8.05;;;3.92;;
15240;SDS011;7723;52.170;9.978;2023-07-08T07:16:51;4.20;;;3.75;;
15240;SDS011;7723;52.170;9.978;2023-07-08T07:19:19;3.75;;;3.35;;
15240;SDS011;7723;52.170;9.978;2023-07-08T07:21:47;6.25;;;3.85;;
15240;SDS011;7723;52.170;9.978;2023-07-08T07:24:14;3.97;;;3.58;;
15240;SDS011;7723;52.170;9.978;2023-07-08T07:26:41;5.43;;;3.60;;
15240;SDS011;7723;52.170;9.978;2023-07-08T07:29:09;4.80;;;3.55;;
15240;SDS011;7723;52.170;9.978;2023-07-08T07:31:36;4.88;;;3.42;;
15240;SDS011;7723;52.170;9.978;2023-07-08T07:34:04;4.68;;;3.75;;
15240;SDS011;7723;52.170;9.978;2023-07-08T07:36:33;3.80;;;3.47;;
15240;SDS011;7723;52.170;9.978;2023-07-08T07:39:00;4.72;;;3.95;;
15240;SDS011;7723;52.170;9.978;2023-07-08T07:41:27;4.43;;;3.83;;
15240;SDS011;7723;52.170;9.978;2023-07-08T07:43:54;4.22;;;3.83;;
15240;SDS011;7723;52.170;9.978;2023-07-08T07:46:22;3.90;;;3.60;;
15240;SDS011;7723;52.170;9.978;2023-07-08T07:48:49;5.38;;;3.85;;
15240;SDS011;7723;52.170;9.978;2023-07-08T07:51:16;4.07;;;3.67;;
15240;SDS011;7723;52.170;9.978;2023-07-08T07:53:44;4.72;;;3.67;;
15240;SDS011;7723;52.170;9.978;2023-07-08T07:56:11;3.83;;;3.53;;
15240;SDS011;7723;52.170;9.978;2023-07-08T07:58:38;3.78;;;3.40;;
15240;SDS011;7723;52.170;9.978;2023-07-08T08:01:05;5.93;;;3.95;;
15240;SDS011;7723;52.170;9.978;2023-07-08T08:03:32;5.82;;;3.92;;
15240;SDS011;7723;52.170;9.978;2023-07-08T08:06:00;4.03;;;3.70;;
15240;SDS011;7723;52.170;9.978;2023-07-08T08:08:27;5.55;;;3.53;;
15240;SDS011;7723;52.170;9.978;2023-07-08T08:10:55;4.32;;;3.63;;
15240;SDS011;7723;52.170;9.978;2023-07-08T08:13:23;4.75;;;4.00;;
15240;SDS011;7723;52.170;9.978;2023-07-08T08:15:55;6.22;;;3.75;;
15240;SDS011;7723;52.170;9.978;2023-07-08T08:18:22;4.10;;;3.53;;
15240;SDS011;7723;52.170;9.978;2023-07-08T08:20:49;5.05;;;4.22;;
15240;SDS011;7723;52.170;9.978;2023-07-08T08:23:17;5.20;;;3.67;;
15240;SDS011;7723;52.170;9.978;2023-07-08T08:25:44;4.30;;;3.90;;
15240;SDS011;7723;52.170;9.978;2023-07-08T08:28:12;5.38;;;3.60;;
15240;SDS011;7723;52.170;9.978;2023-07-08T08:30:40;5.35;;;3.53;;
15240;SDS011;7723;52.170;9.978;2023-07-08T08:33:07;4.35;;;3.92;;
15240;SDS011;7723;52.170;9.978;2023-07-08T08:35:34;5.68;;;3.50;;
15240;SDS011;7723;52.170;9.978;2023-07-08T08:38:01;5.95;;;4.25;;
15240;SDS011;7723;52.170;9.978;2023-07-08T08:40:30;6.30;;;4.15;;
15240;SDS011;7723;52.170;9.978;2023-07-08T08:42:59;5.38;;;4.20;;
15240;SDS011;7723;52.170;9.978;2023-07-08T08:45:31;6.30;;;4.10;;
15240;SDS011;7723;52.170;9.978;2023-07-08T08:48:03;6.70;;;4.28;;
15240;SDS011;7723;52.170;9.978;2023-07-08T08:50:34;5.45;;;4.00;;
15240;SDS011;7723;52.170;9.978;2023-07-08T08:53:09;5.90;;;4.43;;
15240;SDS011;7723;52.170;9.978;2023-07-08T08:55:39;5.20;;;4.45;;
15240;SDS011;7723;52.170;9.978;2023-07-08T08:58:09;7.60;;;4.93;;
15240;SDS011;7723;52.170;9.978;2023-07-08T09:00:54;8.13;;;4.70;;
15240;SDS011;7723;52.170;9.978;2023-07-08T09:03:27;6.93;;;4.43;;
15240;SDS011;7723;52.170;9.978;2023-07-08T09:06:08;5.90;;;5.30;;
15240;SDS011;7723;52.170;9.978;2023-07-08T09:08:38;7.55;;;5.05;;
15240;SDS011;7723;52.170;9.978;2023-07-08T09:11:10;9.48;;;5.40;;
15240;SDS011;7723;52.170;9.978;2023-07-08T09:13:46;6.70;;;5.90;;
15240;SDS011;7723;52.170;9.978;2023-07-08T09:16:18;9.77;;;5.93;;
15240;SDS011;7723;52.170;9.978;2023-07-08T09:18:54;7.53;;;5.30;;
15240;SDS011;7723;52.170;9.978;2023-07-08T09:21:25;8.05;;;6.30;;
15240;SDS011;7723;52.170;9.978;2023-07-08T09:23:58;7.07;;;5.50;;
15240;SDS011;7723;52.170;9.978;2023-07-08T09:26:30;10.93;;;5.28;;
15240;SDS011;7723;52.170;9.978;2023-07-08T09:28:59;7.05;;;4.90;;
15240;SDS011;7723;52.170;9.978;2023-07-08T09:31:28;6.53;;;5.22;;
15240;SDS011;7723;52.170;9.978;2023-07-08T09:34:05;7.93;;;5.47;;
15240;SDS011;7723;52.170;9.978;2023-07-08T09:36:37;6.10;;;4.93;;
15240;SDS011;7723;52.170;9.978;2023-07-08T09:39:08;5.32;;;4.65;;
15240;SDS011;7723;52.170;9.978;2023-07-08T09:41:38;10.52;;;5.85;;
15240;SDS011;7723;52.170;9.978;2023-07-08T09:44:13;6.32;;;5.10;;
15240;SDS011;7723;52.170;9.978;2023-07-08T09:46:44;8.73;;;5.57;;
15240;SDS011;7723;52.170;9.978;2023-07-08T09:49:18;7.70;;;5.68;;
15240;SDS011;7723;52.170;9.978;2023-07-08T09:51:47;6.00;;;5.15;;
15240;SDS011;7723;52.170;9.978;2023-07-08T09:54:15;5.90;;;4.78;;
15240;SDS011;7723;52.170;9.978;2023-07-08T09:56:43;6.45;;;5.07;;
15240;SDS011;7723;52.170;9.978;2023-07-08T09:59:16;6.55;;;5.00;;
15240;SDS011;7723;52.170;9.978;2023-07-08T10:01:47;7.43;;;4.82;;
15240;SDS011;7723;52.170;9.978;2023-07-08T10:04:15;6.10;;;4.70;;
15240;SDS011;7723;52.170;9.978;2023-07-08T10:06:45;6.70;;;5.03;;
15240;SDS011;7723;52.170;9.978;2023-07-08T10:09:14;5.82;;;4.85;;
15240;SDS011;7723;52.170;9.978;2023-07-08T10:11:51;6.25;;;4.95;;
15240;SDS011;7723;52.170;9.978;2023-07-08T10:14:24;5.45;;;4.95;;
15240;SDS011;7723;52.170;9.978;2023-07-08T10:16:55;6.03;;;5.28;;
15240;SDS011;7723;52.170;9.978;2023-07-08T10:19:23;5.78;;;4.40;;
15240;SDS011;7723;52.170;9.978;2023-07-08T10:21:51;5.22;;;4.60;;
15240;SDS011;7723;52.170;9.978;2023-07-08T10:24:30;6.10;;;4.90;;
15240;SDS011;7723;52.170;9.978;2023-07-08T10:27:08;4.60;;;4.20;;
15240;SDS011;7723;52.170;9.978;2023-07-08T10:29:44;6.32;;;4.40;;
15240;SDS011;7723;52.170;9.978;2023-07-08T10:32:23;5.38;;;4.13;;
15240;SDS011;7723;52.170;9.978;2023-07-08T10:35:01;4.75;;;4.25;;
15240;SDS011;7723;52.170;9.978;2023-07-08T10:37:40;5.32;;;4.35;;
15240;SDS011;7723;52.170;9.978;2023-07-08T10:40:20;4.20;;;3.90;;
15240;SDS011;7723;52.170;9.978;2023-07-08T10:43:07;6.18;;;4.20;;
15240;SDS011;7723;52.170;9.978;2023-07-08T10:45:52;5.10;;;3.72;;
15240;SDS011;7723;52.170;9.978;2023-07-08T10:48:32;4.40;;;4.00;;
15240;SDS011;7723;52.170;9.978;2023-07-08T10:51:14;5.63;;;4.22;;
15240;SDS011;7723;52.170;9.978;2023-07-08T10:53:55;6.88;;;4.30;;
15240;SDS011;7723;52.170;9.978;2023-07-08T10:56:37;5.72;;;4.00;;
15240;SDS011;7723;52.170;9.978;2023-07-08T10:59:25;5.15;;;3.80;;
15240;SDS011;7723;52.170;9.978;2023-07-08T11:02:20;5.38;;;4.30;;
15240;SDS011;7723;52.170;9.978;2023-07-08T11:05:05;4.60;;;4.20;;
15240;SDS011;7723;52.170;9.978;2023-07-08T11:07:44;5.47;;;4.00;;
15240;SDS011;7723;52.170;9.978;2023-07-08T11:10:17;5.80;;;3.85;;
15240;SDS011;7723;52.170;9.978;2023-07-08T11:12:50;4.40;;;4.00;;
15240;SDS011;7723;52.170;9.978;2023-07-08T11:15:22;4.05;;;3.60;;
15240;SDS011;7723;52.170;9.978;2023-07-08T11:17:55;4.65;;;3.95;;
15240;SDS011;7723;52.170;9.978;2023-07-08T11:20:31;5.30;;;4.03;;
15240;SDS011;7723;52.170;9.978;2023-07-08T11:23:04;4.82;;;3.53;;
15240;SDS011;7723;52.170;9.978;2023-07-08T11:25:35;3.67;;;3.25;;
15240;SDS011;7723;52.170;9.978;2023-07-08T11:28:04;5.82;;;4.03;;
15240;SDS011;7723;52.170;9.978;2023-07-08T11:30:33;5.85;;;3.80;;
15240;SDS011;7723;52.170;9.978;2023-07-08T11:33:05;4.47;;;3.65;;
15240;SDS011;7723;52.170;9.978;2023-07-08T11:35:41;11.20;;;4.20;;
15240;SDS011;7723;52.170;9.978;2023-07-08T11:38:13;4.38;;;3.28;;
15240;SDS011;7723;52.170;9.978;2023-07-08T11:40:49;4.07;;;3.67;;
15240;SDS011;7723;52.170;9.978;2023-07-08T11:43:19;3.85;;;3.47;;
15240;SDS011;7723;52.170;9.978;2023-07-08T11:45:48;4.53;;;4.03;;
15240;SDS011;7723;52.170;9.978;2023-07-08T11:48:18;3.85;;;3.45;;
15240;SDS011;7723;52.170;9.978;2023-07-08T11:50:50;4.25;;;3.85;;
15240;SDS011;7723;52.170;9.978;2023-07-08T11:53:32;7.85;;;4.38;;
15240;SDS011;7723;52.170;9.978;2023-07-08T11:56:03;5.72;;;3.95;;
15240;SDS011;7723;52.170;9.978;2023-07-08T11:58:50;5.00;;;3.85;;
15240;SDS011;7723;52.170;9.978;2023-07-08T12:01:26;5.25;;;3.90;;
15240;SDS011;7723;52.170;9.978;2023-07-08T12:03:58;3.85;;;3.45;;
15240;SDS011;7723;52.170;9.978;2023-07-08T12:06:46;5.20;;;3.50;;
15240;SDS011;7723;52.170;9.978;2023-07-08T12:09:27;5.32;;;4.07;;
15240;SDS011;7723;52.170;9.978;2023-07-08T12:11:57;4.78;;;3.95;;
15240;SDS011;7723;52.170;9.978;2023-07-08T12:14:26;5.05;;;4.25;;
15240;SDS011;7723;52.170;9.978;2023-07-08T12:16:54;4.22;;;3.83;;
15240;SDS011;7723;52.170;9.978;2023-07-08T12:19:22;4.10;;;3.67;;
15240;SDS011;7723;52.170;9.978;2023-07-08T12:21:53;5.57;;;4.13;;
15240;SDS011;7723;52.170;9.978;2023-07-08T12:24:20;5.60;;;4.15;;
15240;SDS011;7723;52.170;9.978;2023-07-08T12:26:51;5.45;;;3.75;;
15240;SDS011;7723;52.170;9.978;2023-07-08T12:29:18;4.55;;;4.13;;
15240;SDS011;7723;52.170;9.978;2023-07-08T12:31:45;3.75;;;3.45;;
15240;SDS011;7723;52.170;9.978;2023-07-08T12:34:13;4.82;;;4.32;;
15240;SDS011;7723;52.170;9.978;2023-07-08T12:36:42;4.10;;;3.72;;
15240;SDS011;7723;52.170;9.978;2023-07-08T12:39:13;5.10;;;4.38;;
15240;SDS011;7723;52.170;9.978;2023-07-08T12:41:42;7.18;;;4.05;;
15240;SDS011;7723;52.170;9.978;2023-07-08T12:44:14;3.97;;;3.58;;
15240;SDS011;7723;52.170;9.978;2023-07-08T12:46:45;12.15;;;4.68;;
15240;SDS011;7723;52.170;9.978;2023-07-08T12:49:14;4.38;;;3.40;;
15240;SDS011;7723;52.170;9.978;2023-07-08T12:51:42;4.32;;;3.92;;
15240;SDS011;7723;52.170;9.978;2023-07-08T12:54:09;4.60;;;4.10;;
15240;SDS011;7723;52.170;9.978;2023-07-08T12:56:39;6.38;;;4.70;;
15240;SDS011;7723;52.170;9.978;2023-07-08T12:59:11;5.05;;;3.97;;
15240;SDS011;7723;52.170;9.978;2023-07-08T13:01:43;5.47;;;4.03;;
15240;SDS011;7723;52.170;9.978;2023-07-08T13:04:13;6.53;;;4.22;;
15240;SDS011;7723;52.170;9.978;2023-07-08T13:06:42;6.22;;;3.78;;
15240;SDS011;7723;52.170;9.978;2023-07-08T13:09:23;6.20;;;4.22;;
15240;SDS011;7723;52.170;9.978;2023-07-08T13:11:57;5.18;;;3.95;;
15240;SDS011;7723;52.170;9.978;2023-07-08T13:14:25;4.72;;;4.10;;
15240;SDS011;7723;52.170;9.978;2023-07-08T13:16:53;4.30;;;3.90;;
15240;SDS011;7723;52.170;9.978;2023-07-08T13:19:21;6.35;;;3.90;;
15240;SDS011;7723;52.170;9.978;2023-07-08T13:21:49;4.28;;;3.88;;
15240;SDS011;7723;52.170;9.978;2023-07-08T13:24:17;4.43;;;3.60;;
15240;SDS011;7723;52.170;9.978;2023-07-08T13:26:46;5.70;;;4.00;;
15240;SDS011;7723;52.170;9.978;2023-07-08T13:29:17;4.43;;;3.95;;
15240;SDS011;7723;52.170;9.978;2023-07-08T13:31:47;3.70;;;3.40;;
15240;SDS011;7723;52.170;9.978;2023-07-08T13:34:16;8.65;;;4.68;;
15240;SDS011;7723;52.170;9.978;2023-07-08T13:36:45;4.75;;;4.35;;
15240;SDS011;7723;52.170;9.978;2023-07-08T13:39:17;5.05;;;4.40;;
15240;SDS011;7723;52.170;9.978;2023-07-08T13:41:50;4.22;;;3.83;;
15240;SDS011;7723;52.170;9.978;2023-07-08T13:44:17;4.78;;;4.38;;
15240;SDS011;7723;52.170;9.978;2023-07-08T13:46:45;4.40;;;3.75;;
15240;SDS011;7723;52.170;9.978;2023-07-08T13:49:19;5.05;;;4.18;;
15240;SDS011;7723;52.170;9.978;2023-07-08T13:51:49;4.05;;;3.65;;
15240;SDS011;7723;52.170;9.978;2023-07-08T13:54:19;5.50;;;4.05;;
15240;SDS011;7723;52.170;9.978;2023-07-08T13:56:48;5.75;;;3.70;;
15240;SDS011;7723;52.170;9.978;2023-07-08T13:59:18;6.00;;;3.95;;
15240;SDS011;7723;52.170;9.978;2023-07-08T14:01:48;5.97;;;4.00;;
15240;SDS011;7723;52.170;9.978;2023-07-08T14:04:19;4.65;;;3.90;;
15240;SDS011;7723;52.170;9.978;2023-07-08T14:06:49;5.13;;;4.05;;
15240;SDS011;7723;52.170;9.978;2023-07-08T14:09:16;4.60;;;4.10;;
15240;SDS011;7723;52.170;9.978;2023-07-08T14:11:45;4.80;;;3.92;;
15240;SDS011;7723;52.170;9.978;2023-07-08T14:14:15;5.22;;;4.63;;
15240;SDS011;7723;52.170;9.978;2023-07-08T14:16:43;4.88;;;4.43;;
15240;SDS011;7723;52.170;9.978;2023-07-08T14:19:13;5.55;;;3.70;;
15240;SDS011;7723;52.170;9.978;2023-07-08T14:21:42;5.22;;;3.90;;
15240;SDS011;7723;52.170;9.978;2023-07-08T14:24:12;5.05;;;4.13;;
15240;SDS011;7723;52.170;9.978;2023-07-08T14:26:41;5.38;;;4.00;;
15240;SDS011;7723;52.170;9.978;2023-07-08T14:29:09;3.85;;;3.45;;
15240;SDS011;7723;52.170;9.978;2023-07-08T14:31:38;6.00;;;3.75;;
15240;SDS011;7723;52.170;9.978;2023-07-08T14:34:06;5.55;;;3.88;;
15240;SDS011;7723;52.170;9.978;2023-07-08T14:36:35;5.35;;;3.88;;
15240;SDS011;7723;52.170;9.978;2023-07-08T14:39:08;6.85;;;4.22;;
15240;SDS011;7723;52.170;9.978;2023-07-08T14:41:37;6.53;;;4.10;;
15240;SDS011;7723;52.170;9.978;2023-07-08T14:44:08;4.30;;;3.90;;
15240;SDS011;7723;52.170;9.978;2023-07-08T14:46:46;6.07;;;4.63;;
15240;SDS011;7723;52.170;9.978;2023-07-08T14:49:15;5.40;;;3.65;;
15240;SDS011;7723;52.170;9.978;2023-07-08T14:51:43;4.85;;;3.72;;
15240;SDS011;7723;52.170;9.978;2023-07-08T14:54:10;7.47;;;4.22;;
15240;SDS011;7723;52.170;9.978;2023-07-08T14:56:38;5.03;;;4.05;;
15240;SDS011;7723;52.170;9.978;2023-07-08T14:59:05;4.53;;;4.13;;
15240;SDS011;7723;52.170;9.978;2023-07-08T15:01:37;4.30;;;3.90;;
15240;SDS011;7723;52.170;9.978;2023-07-08T15:04:09;5.82;;;3.83;;
15240;SDS011;7723;52.170;9.978;2023-07-08T15:06:37;6.45;;;3.72;;
15240;SDS011;7723;52.170;9.978;2023-07-08T15:09:05;4.43;;;4.00;;
15240;SDS011;7723;52.170;9.978;2023-07-08T15:11:32;4.90;;;4.20;;
15240;SDS011;7723;52.170;9.978;2023-07-08T15:14:00;4.00;;;3.60;;
15240;SDS011;7723;52.170;9.978;2023-07-08T15:16:28;7.35;;;4.47;;
15240;SDS011;7723;52.170;9.978;2023-07-08T15:18:55;4.47;;;3.65;;